Kaliningrad, Russia
Current Conditions -  °F | °C
As of 7:00 PM on Thursday 27 Nov 2014 (Local Time) from UMKK Reporting Station
Overcast Overcast  
Wind Chill: 22°   Ceiling: 700
Heat Index: 30°   Visibility: 4mi
Dew Point: 27°   Wind: 9mph
Humidity: 86%   Direction: 130°SE
Pressure: 30.27"   Gusts: NA
Location:  54.71°N, 20.5°E
Report Text: UMKK 271700Z 13004MPS 110V170 6000 OVC007 M01/M03 Q1025 R24/19//60 NOSIG RMK QFE768/1024
Loading
Personal Weather Stations






























Interactive Weather Map New forecast layout! Learn more

10-Day Weather Forecast

Advertisements
Track Severe Weather on mobile